createdAt,value
2022-11-22T00:00:48.215Z,29.10
2022-11-22T00:03:15.692Z,27.35
2022-11-22T00:05:43.096Z,26.45
2022-11-22T00:08:10.703Z,24.67
2022-11-22T00:10:38.437Z,25.30
2022-11-22T00:13:05.787Z,27.30
2022-11-22T00:15:33.558Z,27.83
2022-11-22T00:18:01.272Z,24.67
2022-11-22T00:20:29.474Z,27.88
2022-11-22T00:22:58.377Z,27.48
2022-11-22T00:25:26.398Z,28.88
2022-11-22T00:27:54.474Z,27.50
2022-11-22T00:30:22.399Z,29.13
2022-11-22T00:32:50.104Z,25.65
2022-11-22T00:35:18.139Z,24.90
2022-11-22T00:37:45.883Z,27.90
2022-11-22T00:40:13.663Z,25.63
2022-11-22T00:42:41.422Z,26.90
2022-11-22T00:45:09.345Z,28.02
2022-11-22T00:47:37.125Z,28.65
2022-11-22T00:50:05.451Z,25.15
2022-11-22T00:52:34.434Z,24.90
2022-11-22T00:55:02.398Z,24.75
2022-11-22T00:57:31.239Z,23.92
2022-11-22T00:59:58.938Z,24.42
2022-11-22T01:02:26.569Z,28.00
2022-11-22T01:04:54.419Z,22.42
2022-11-22T01:07:22.251Z,23.00
2022-11-22T01:09:49.955Z,22.02
2022-11-22T01:12:17.730Z,23.38
2022-11-22T01:14:45.542Z,23.42
2022-11-22T01:17:13.302Z,27.13
2022-11-22T01:19:41.052Z,23.83
2022-11-22T01:22:08.865Z,24.05
2022-11-22T01:24:36.381Z,25.40
2022-11-22T01:27:04.013Z,30.60
2022-11-22T01:29:32.002Z,25.48
2022-11-22T01:32:00.269Z,27.45
2022-11-22T01:34:27.927Z,26.02
2022-11-22T01:36:55.680Z,25.27
2022-11-22T01:39:23.384Z,25.83
2022-11-22T01:41:51.027Z,23.20
2022-11-22T01:44:22.163Z,29.63
2022-11-22T01:46:54.248Z,25.77
2022-11-22T01:49:29.175Z,27.17
2022-11-22T01:52:02.573Z,25.92
2022-11-22T01:54:33.914Z,27.50
2022-11-22T01:57:08.334Z,27.70
2022-11-22T01:59:42.126Z,26.17
2022-11-22T02:02:10.035Z,26.05
2022-11-22T02:04:39.010Z,28.20
2022-11-22T02:07:14.976Z,26.10
2022-11-22T02:09:44.094Z,26.23
2022-11-22T02:12:12.823Z,28.30
2022-11-22T02:14:41.380Z,24.45
2022-11-22T02:17:09.045Z,23.58
2022-11-22T02:19:44.253Z,26.40
2022-11-22T02:22:36.619Z,28.77
2022-11-22T02:25:22.943Z,26.70
2022-11-22T02:27:51.155Z,23.60
2022-11-22T02:30:19.176Z,28.42
2022-11-22T02:32:47.023Z,28.25
2022-11-22T02:35:19.605Z,24.35
2022-11-22T02:37:49.626Z,24.73
2022-11-22T02:40:18.002Z,25.20
2022-11-22T02:42:51.752Z,23.52
2022-11-22T02:45:22.833Z,25.40
2022-11-22T02:47:54.057Z,26.65
2022-11-22T02:50:22.645Z,28.55
2022-11-22T02:52:52.251Z,23.50
2022-11-22T02:55:22.446Z,25.25
2022-11-22T02:57:51.612Z,21.83
2022-11-22T03:00:21.368Z,22.75
2022-11-22T03:02:52.239Z,23.85
2022-11-22T03:05:21.184Z,25.67
2022-11-22T03:07:49.985Z,26.08
2022-11-22T03:10:20.366Z,21.85
2022-11-22T03:12:50.216Z,23.05
2022-11-22T03:15:20.537Z,23.63
2022-11-22T03:17:49.566Z,27.25
2022-11-22T03:20:17.281Z,27.55
2022-11-22T03:22:45.005Z,25.20
2022-11-22T03:25:15.044Z,25.40
2022-11-22T03:27:44.417Z,25.27
2022-11-22T03:30:12.978Z,27.70
2022-11-22T03:32:41.728Z,24.52
2022-11-22T03:35:09.630Z,26.20
2022-11-22T03:37:37.471Z,20.92
2022-11-22T03:40:07.838Z,21.85
2022-11-22T03:42:36.467Z,22.77
2022-11-22T03:45:05.409Z,22.55
2022-11-22T03:47:38.625Z,26.90
2022-11-22T03:50:08.115Z,24.88
2022-11-22T03:52:36.018Z,22.58
2022-11-22T03:55:03.821Z,25.33
2022-11-22T03:57:31.572Z,25.63
2022-11-22T03:59:59.279Z,20.92
2022-11-22T04:02:26.990Z,23.92
2022-11-22T04:04:54.711Z,22.23
2022-11-22T04:07:22.361Z,19.35
2022-11-22T04:09:50.136Z,22.38
2022-11-22T04:12:17.810Z,23.13
2022-11-22T04:15:00.651Z,26.35
2022-11-22T04:17:43.814Z,21.38
2022-11-22T04:20:33.391Z,22.92
2022-11-22T04:23:04.063Z,26.02
2022-11-22T04:25:33.488Z,23.38
2022-11-22T04:28:01.559Z,20.40
2022-11-22T04:30:45.023Z,18.52
2022-11-22T04:33:13.066Z,26.25
2022-11-22T04:35:40.967Z,22.02
2022-11-22T04:38:08.765Z,22.65
2022-11-22T04:40:36.939Z,31.30
2022-11-22T04:43:19.949Z,20.67
2022-11-22T04:48:15.269Z,20.85
2022-11-22T04:50:59.011Z,20.63
2022-11-22T04:53:27.125Z,20.40
2022-11-22T04:55:57.997Z,20.67
2022-11-22T04:58:26.820Z,19.40
2022-11-22T05:00:54.943Z,19.17
2022-11-22T05:03:22.902Z,18.33
2022-11-22T05:05:50.618Z,19.58
2022-11-22T05:08:19.378Z,21.08
2022-11-22T05:11:04.600Z,21.05
2022-11-22T05:13:35.387Z,21.42
2022-11-22T05:16:04.926Z,18.30
2022-11-22T05:18:33.184Z,20.25
2022-11-22T05:21:06.610Z,20.30
2022-11-22T05:23:49.954Z,18.70
2022-11-22T05:26:17.588Z,14.52
2022-11-22T05:28:45.628Z,16.77
2022-11-22T05:31:17.098Z,16.38
2022-11-22T05:33:46.791Z,14.35
2022-11-22T05:36:14.589Z,15.40
2022-11-22T05:38:42.242Z,10.95
2022-11-22T05:41:12.782Z,14.45
2022-11-22T05:43:40.892Z,13.32
2022-11-22T05:46:11.966Z,12.43
2022-11-22T05:48:41.135Z,12.70
2022-11-22T05:51:11.066Z,14.57
2022-11-22T05:53:39.503Z,12.35
2022-11-22T05:56:10.072Z,10.30
2022-11-22T05:58:38.354Z,13.73
2022-11-22T06:01:10.560Z,12.52
2022-11-22T06:03:38.806Z,13.48
2022-11-22T06:06:07.278Z,9.93
2022-11-22T06:08:36.533Z,10.65
2022-11-22T06:11:08.723Z,10.23
2022-11-22T06:13:37.975Z,13.75
2022-11-22T06:16:06.876Z,14.32
2022-11-22T06:18:34.953Z,12.85
2022-11-22T06:21:05.128Z,10.60
2022-11-22T06:23:32.885Z,11.60
2022-11-22T06:26:03.035Z,9.55
2022-11-22T06:28:31.586Z,13.65
2022-11-22T06:31:05.710Z,11.43
2022-11-22T06:33:33.836Z,10.80
2022-11-22T06:36:12.105Z,9.50
2022-11-22T06:38:40.996Z,9.98
2022-11-22T06:41:11.049Z,9.57
2022-11-22T06:43:45.133Z,10.60
2022-11-22T06:46:16.198Z,9.93
2022-11-22T06:48:44.196Z,9.60
2022-11-22T06:51:17.054Z,9.55
2022-11-22T06:56:22.294Z,8.80
2022-11-22T06:58:51.379Z,9.27
2022-11-22T07:01:22.582Z,8.77
2022-11-22T07:03:51.166Z,8.50
2022-11-22T07:06:19.448Z,6.95
2022-11-22T07:08:47.621Z,6.95
2022-11-22T07:11:19.597Z,7.30
2022-11-22T07:13:48.211Z,8.37
2022-11-22T07:16:18.624Z,7.90
2022-11-22T07:18:46.542Z,6.95
2022-11-22T07:21:20.539Z,8.60
2022-11-22T07:23:49.970Z,7.05
2022-11-22T07:26:22.051Z,5.88
2022-11-22T07:28:50.051Z,5.18
2022-11-22T07:31:18.355Z,7.07
2022-11-22T07:33:46.197Z,6.30
2022-11-22T07:36:16.479Z,6.85
2022-11-22T07:38:44.335Z,7.68
2022-11-22T07:41:12.177Z,6.72
2022-11-22T07:43:39.995Z,8.15
2022-11-22T07:46:15.989Z,8.18
2022-11-22T07:48:43.721Z,7.22
2022-11-22T07:51:11.662Z,6.55
2022-11-22T07:53:39.496Z,5.40
2022-11-22T07:56:07.780Z,3.95
2022-11-22T07:58:35.948Z,5.60
2022-11-22T08:01:09.189Z,6.47
2022-11-22T08:03:37.118Z,5.30
2022-11-22T08:06:07.410Z,4.88
2022-11-22T08:08:36.046Z,6.57
2022-11-22T08:11:04.962Z,6.68
2022-11-22T08:13:33.817Z,5.03
2022-11-22T08:16:06.224Z,8.73
2022-11-22T08:18:35.344Z,6.40
2022-11-22T08:21:08.521Z,8.38
2022-11-22T08:23:36.396Z,6.68
2022-11-22T08:26:04.130Z,7.30
2022-11-22T08:28:31.961Z,8.60
2022-11-22T08:31:05.324Z,6.38
2022-11-22T08:33:33.311Z,5.72
2022-11-22T08:36:01.464Z,6.13
2022-11-22T08:38:29.376Z,6.38
2022-11-22T08:40:57.459Z,6.50
2022-11-22T08:43:25.855Z,6.25
2022-11-22T08:45:59.085Z,7.03
2022-11-22T08:48:29.107Z,8.38
2022-11-22T08:51:01.403Z,6.45
2022-11-22T08:53:30.969Z,5.50
2022-11-22T08:56:01.987Z,7.03
2022-11-22T08:58:32.667Z,6.55
2022-11-22T09:01:07.788Z,5.75
2022-11-22T09:03:38.317Z,6.45
2022-11-22T09:09:22.197Z,7.43
2022-11-22T09:11:49.166Z,7.22
2022-11-22T09:14:19.833Z,5.90
2022-11-22T09:16:50.564Z,5.90
2022-11-22T09:19:21.184Z,6.00
2022-11-22T09:21:51.785Z,5.75
2022-11-22T09:24:21.520Z,7.13
2022-11-22T09:26:51.038Z,5.88
2022-11-22T09:29:20.199Z,6.03
2022-11-22T09:31:50.348Z,6.28
2022-11-22T09:34:18.241Z,6.30
2022-11-22T09:36:45.953Z,5.78
2022-11-22T09:39:13.670Z,5.75
2022-11-22T09:42:05.662Z,6.03
2022-11-22T09:44:58.185Z,6.78
2022-11-22T09:47:39.696Z,7.60
2022-11-22T09:50:38.325Z,5.97
2022-11-22T09:53:21.241Z,7.32
2022-11-22T09:55:54.361Z,5.55
2022-11-22T09:58:44.553Z,5.80
2022-11-22T10:01:33.981Z,5.65
2022-11-22T10:04:18.122Z,7.55
2022-11-22T10:06:53.071Z,9.07
2022-11-22T10:09:42.547Z,5.07
2022-11-22T10:12:16.991Z,5.18
2022-11-22T10:14:59.076Z,4.88
2022-11-22T10:17:52.935Z,5.13
2022-11-22T10:20:23.029Z,5.35
2022-11-22T10:22:50.995Z,6.70
2022-11-22T10:25:24.070Z,5.50
2022-11-22T10:28:01.146Z,4.55
2022-11-22T10:30:38.999Z,5.05
2022-11-22T10:33:18.851Z,5.90
2022-11-22T10:36:10.032Z,6.70
2022-11-22T10:38:56.728Z,4.20
2022-11-22T10:41:51.585Z,3.22
2022-11-22T10:44:37.816Z,5.13
2022-11-22T10:47:34.483Z,4.60
2022-11-22T10:50:14.499Z,4.78
2022-11-22T10:53:00.974Z,5.10
2022-11-22T10:55:59.255Z,4.53
2022-11-22T10:58:57.448Z,4.32
2022-11-22T11:01:43.563Z,3.55
2022-11-22T11:04:13.708Z,4.47
2022-11-22T11:10:10.373Z,4.43
2022-11-22T11:12:46.343Z,4.15
2022-11-22T11:15:22.090Z,4.32
2022-11-22T11:17:59.239Z,6.18
2022-11-22T11:20:31.838Z,6.28
2022-11-22T11:23:14.397Z,4.95
2022-11-22T11:25:45.227Z,6.82
2022-11-22T11:28:23.943Z,7.43
2022-11-22T11:30:55.577Z,5.22
2022-11-22T11:33:32.033Z,5.90
2022-11-22T11:36:24.294Z,8.43
2022-11-22T11:38:57.028Z,6.03
2022-11-22T11:41:40.320Z,5.18
2022-11-22T11:44:29.449Z,6.20
2022-11-22T11:46:57.796Z,6.55
2022-11-22T11:49:28.841Z,7.70
2022-11-22T11:52:00.195Z,6.43
2022-11-22T11:54:44.334Z,7.82
2022-11-22T11:57:21.968Z,5.65
2022-11-22T11:59:51.679Z,5.97
2022-11-22T12:02:25.911Z,8.88
2022-11-22T12:04:58.188Z,8.02
2022-11-22T12:07:28.749Z,6.65
2022-11-22T12:09:56.826Z,6.47
2022-11-22T12:12:44.624Z,6.13
2022-11-22T12:15:22.297Z,8.05
2022-11-22T12:17:56.466Z,7.57
2022-11-22T12:20:42.463Z,9.38
2022-11-22T12:23:31.217Z,5.40
2022-11-22T12:26:02.619Z,6.57
2022-11-22T12:28:30.583Z,8.38
2022-11-22T12:31:14.760Z,6.80
2022-11-22T12:33:47.741Z,5.07
2022-11-22T12:36:41.458Z,6.63
2022-11-22T12:39:15.057Z,6.25
2022-11-22T12:41:45.265Z,8.00
2022-11-22T12:44:18.901Z,6.53
2022-11-22T12:46:54.853Z,10.48
2022-11-22T12:49:37.863Z,9.32
2022-11-22T12:52:29.945Z,7.00
2022-11-22T12:55:09.307Z,7.22
2022-11-22T12:57:45.397Z,4.53
2022-11-22T13:00:17.697Z,5.68
2022-11-22T13:03:01.735Z,8.20
2022-11-22T13:05:53.052Z,7.15
2022-11-22T13:08:37.531Z,4.78
2022-11-22T13:11:18.641Z,4.80
2022-11-22T13:13:50.933Z,4.22
2022-11-22T13:16:18.846Z,6.25
2022-11-22T13:19:04.732Z,6.85
2022-11-22T13:22:03.039Z,7.88
2022-11-22T13:24:53.881Z,6.55
2022-11-22T13:27:29.465Z,8.30
2022-11-22T13:30:00.332Z,9.07
2022-11-22T13:32:33.210Z,7.22
2022-11-22T13:35:22.444Z,9.00
2022-11-22T13:37:53.311Z,6.70
2022-11-22T13:40:26.980Z,8.75
2022-11-22T13:43:26.265Z,6.93
2022-11-22T13:46:05.217Z,6.72
2022-11-22T13:49:11.433Z,6.07
2022-11-22T13:51:56.844Z,5.40
2022-11-22T13:54:43.246Z,7.13
2022-11-22T13:57:31.109Z,5.15
2022-11-22T14:00:34.257Z,4.57
2022-11-22T14:03:23.085Z,3.97
2022-11-22T14:05:55.164Z,5.35
2022-11-22T14:08:42.465Z,4.63
2022-11-22T14:11:31.382Z,5.85
2022-11-22T14:14:15.909Z,6.50
2022-11-22T14:17:02.292Z,5.53
2022-11-22T14:20:01.176Z,5.88
2022-11-22T14:23:00.580Z,5.85
2022-11-22T14:25:51.992Z,8.25
2022-11-22T14:28:54.761Z,5.10
2022-11-22T14:31:28.703Z,5.72
2022-11-22T14:34:21.200Z,5.07
2022-11-22T14:37:24.177Z,5.80
2022-11-22T14:40:03.293Z,6.55
2022-11-22T14:42:48.163Z,5.85
2022-11-22T14:45:23.495Z,7.68
2022-11-22T14:48:14.818Z,6.65
2022-11-22T14:50:45.909Z,5.15
2022-11-22T14:53:32.306Z,5.78
2022-11-22T14:56:17.767Z,8.48
2022-11-22T14:59:20.204Z,8.02
2022-11-22T15:02:14.118Z,7.50
2022-11-22T15:09:11.238Z,8.27
2022-11-22T15:09:18.601Z,7.13
2022-11-22T15:11:40.251Z,10.35
2022-11-22T15:14:40.050Z,8.43
2022-11-22T15:57:36.925Z,8.07
2022-11-22T16:00:21.625Z,8.13
2022-11-22T16:02:52.069Z,9.32
2022-11-22T16:06:09.766Z,9.13
2022-11-22T16:08:29.320Z,9.45
2022-11-22T16:11:00.763Z,7.60
2022-11-22T16:13:33.263Z,7.80
2022-11-22T16:16:19.039Z,7.57
2022-11-22T16:18:48.481Z,7.40
2022-11-22T16:21:29.122Z,9.82
2022-11-22T16:24:17.888Z,6.90
2022-11-22T16:27:02.450Z,7.78
2022-11-22T16:29:33.509Z,10.30
2022-11-22T16:32:10.478Z,9.23
2022-11-22T16:34:38.705Z,9.85
2022-11-22T16:37:37.525Z,10.52
2022-11-22T16:40:09.173Z,11.10
2022-11-22T16:42:39.876Z,11.73
2022-11-22T16:45:19.491Z,13.90
2022-11-22T16:47:54.576Z,12.18
2022-11-22T16:50:36.197Z,13.48
2022-11-22T16:53:04.132Z,15.32
2022-11-22T16:55:34.435Z,12.15
2022-11-22T16:58:02.288Z,13.02
2022-11-22T17:00:30.542Z,15.90
2022-11-22T17:03:01.394Z,14.48
2022-11-22T17:05:33.380Z,14.57
2022-11-22T17:08:04.000Z,12.77
2022-11-22T17:10:35.337Z,14.25
2022-11-22T17:13:03.219Z,15.35
2022-11-22T17:15:31.454Z,15.63
2022-11-22T17:18:04.052Z,17.35
2022-11-22T17:20:42.287Z,16.50
2022-11-22T17:23:16.643Z,13.20
2022-11-22T17:25:44.519Z,16.02
2022-11-22T17:28:14.613Z,13.93
2022-11-22T17:30:46.204Z,12.13
2022-11-22T17:33:17.031Z,22.20
2022-11-22T17:35:50.098Z,20.10
2022-11-22T17:38:20.794Z,16.52
2022-11-22T17:40:50.361Z,18.67
2022-11-22T17:43:18.157Z,16.27
2022-11-22T17:45:46.186Z,19.13
2022-11-22T17:48:14.366Z,15.25
2022-11-22T17:50:44.322Z,18.70
2022-11-22T17:53:12.078Z,23.63
2022-11-22T17:56:09.518Z,19.42
2022-11-22T17:58:38.895Z,18.23
2022-11-22T18:01:10.180Z,15.32
2022-11-22T18:03:41.333Z,15.00
2022-11-22T18:06:12.873Z,17.00
2022-11-22T18:08:46.964Z,15.32
2022-11-22T18:11:17.471Z,18.35
2022-11-22T18:13:45.596Z,20.77
2022-11-22T18:16:19.272Z,24.33
2022-11-22T18:18:57.193Z,22.30
2022-11-22T18:21:27.142Z,31.55
2022-11-22T18:23:58.591Z,30.70
2022-11-22T18:26:43.140Z,21.85
2022-11-22T18:32:02.548Z,31.60
2022-11-22T18:34:30.875Z,32.65
2022-11-22T18:37:02.656Z,23.10
2022-11-22T18:39:35.147Z,35.03
2022-11-22T18:42:08.661Z,32.17
2022-11-22T18:44:36.713Z,33.10
2022-11-22T18:47:08.328Z,26.58
2022-11-22T18:49:36.758Z,25.85
2022-11-22T18:52:05.962Z,20.48
2022-11-22T18:54:36.852Z,17.70
2022-11-22T18:57:17.539Z,13.77
2022-11-22T18:59:50.776Z,14.15
2022-11-22T19:02:20.198Z,15.95
2022-11-22T19:04:56.603Z,22.27
2022-11-22T19:07:29.727Z,18.05
2022-11-22T19:10:09.088Z,18.45
2022-11-22T19:12:41.300Z,22.00
2022-11-22T19:15:12.337Z,18.92
2022-11-22T19:17:40.691Z,15.75
2022-11-22T19:20:32.430Z,12.52
2022-11-22T19:23:07.752Z,15.77
2022-11-22T19:25:47.312Z,14.30
2022-11-22T19:28:20.365Z,14.57
2022-11-22T19:30:53.592Z,10.93
2022-11-22T19:33:25.061Z,8.68
2022-11-22T19:36:02.946Z,10.07
2022-11-22T19:38:31.171Z,9.15
2022-11-22T19:40:59.225Z,10.60
2022-11-22T19:43:28.989Z,7.35
2022-11-22T19:46:02.639Z,7.50
2022-11-22T19:48:46.678Z,8.48
2022-11-22T19:51:20.343Z,5.70
2022-11-22T19:54:02.177Z,5.47
2022-11-22T19:56:35.847Z,6.40
2022-11-22T19:59:17.955Z,6.78
2022-11-22T20:01:47.031Z,7.00
2022-11-22T20:04:16.223Z,6.80
2022-11-22T20:06:50.511Z,5.55
2022-11-22T20:09:27.484Z,5.22
2022-11-22T20:11:55.571Z,5.63
2022-11-22T20:14:28.647Z,3.70
2022-11-22T20:16:59.134Z,5.35
2022-11-22T20:19:32.774Z,3.85
2022-11-22T20:22:03.217Z,3.78
2022-11-22T20:24:34.261Z,4.38
2022-11-22T20:27:09.783Z,3.08
2022-11-22T20:29:37.920Z,4.43
2022-11-22T20:32:13.593Z,2.67
2022-11-22T20:37:12.055Z,3.40
2022-11-22T20:39:53.163Z,3.13
2022-11-22T20:42:40.523Z,3.15
2022-11-22T20:45:11.696Z,2.97
2022-11-22T20:47:42.360Z,3.95
2022-11-22T20:50:11.171Z,2.47
2022-11-22T20:52:41.804Z,2.42
2022-11-22T20:55:12.255Z,2.47
2022-11-22T20:57:41.031Z,2.35
2022-11-22T21:00:23.811Z,2.83
2022-11-22T21:02:51.681Z,2.63
2022-11-22T21:05:31.064Z,3.17
2022-11-22T21:08:05.223Z,3.20
2022-11-22T21:10:33.469Z,2.70
2022-11-22T21:13:01.231Z,2.22
2022-11-22T21:15:32.014Z,2.88
2022-11-22T21:18:26.771Z,3.00
2022-11-22T21:20:58.067Z,2.25
2022-11-22T21:23:25.808Z,2.67
2022-11-22T21:25:53.543Z,3.13
2022-11-22T21:28:21.460Z,5.30
2022-11-22T21:30:57.288Z,3.08
2022-11-22T21:33:25.867Z,4.00
2022-11-22T21:36:02.030Z,3.88
2022-11-22T21:41:24.225Z,2.40
2022-11-22T21:43:58.767Z,2.88
2022-11-22T21:46:26.576Z,2.25
2022-11-22T21:49:02.701Z,4.15
2022-11-22T21:51:32.345Z,2.67
2022-11-22T21:54:07.847Z,2.70
2022-11-22T21:56:35.729Z,3.08
2022-11-22T21:59:09.548Z,2.97
2022-11-22T22:01:37.614Z,3.53
2022-11-22T22:04:08.650Z,5.38
2022-11-22T22:06:41.236Z,4.13
2022-11-22T22:09:11.399Z,5.32
2022-11-22T22:11:41.936Z,3.65
2022-11-22T22:14:09.586Z,4.45
2022-11-22T22:16:38.181Z,5.07
2022-11-22T22:19:09.430Z,5.75
2022-11-22T22:21:37.556Z,6.07
2022-11-22T22:24:07.650Z,4.97
2022-11-22T22:26:35.451Z,7.05
2022-11-22T22:29:03.354Z,7.03
2022-11-22T22:31:33.967Z,7.63
2022-11-22T22:34:01.805Z,5.82
2022-11-22T22:36:29.543Z,7.25
2022-11-22T22:38:57.197Z,6.30
2022-11-22T22:41:27.974Z,6.88
2022-11-22T22:43:58.701Z,6.85
2022-11-22T22:46:33.958Z,5.18
2022-11-22T22:49:06.041Z,7.32
2022-11-22T22:51:34.098Z,9.03
2022-11-22T22:54:02.296Z,7.00
2022-11-22T22:56:31.393Z,7.45
2022-11-22T22:59:01.215Z,8.52
2022-11-22T23:01:36.345Z,6.07
2022-11-22T23:04:04.234Z,7.60
2022-11-22T23:06:34.715Z,8.25
2022-11-22T23:09:05.830Z,9.02
2022-11-22T23:11:52.320Z,6.05
2022-11-22T23:14:25.336Z,8.65
2022-11-22T23:16:58.605Z,8.25
2022-11-22T23:19:27.815Z,8.88
2022-11-22T23:21:55.895Z,7.07
2022-11-22T23:24:34.506Z,7.07
2022-11-22T23:27:02.280Z,8.20
2022-11-22T23:29:30.407Z,6.15
2022-11-22T23:31:58.422Z,6.43
2022-11-22T23:34:27.570Z,6.38
2022-11-22T23:36:58.260Z,6.13
2022-11-22T23:39:29.193Z,4.65
2022-11-22T23:41:59.818Z,5.72
2022-11-22T23:44:27.551Z,6.03
2022-11-22T23:46:58.047Z,4.95
2022-11-22T23:49:26.085Z,5.53
2022-11-22T23:51:56.390Z,5.22
2022-11-22T23:54:24.326Z,5.00
2022-11-22T23:56:52.247Z,3.90
2022-11-22T23:59:21.809Z,5.78
